Time;durP1;ratioP1;P1;durP2;ratioP2;P2;SDS_P1;SDS_P2;PMS_P1;PMS_P2;Temp;Humidity;BMP_temperature;BMP_pressure;BME280_temperature;BME280_humidity;BME280_pressure;Samples;Min_cycle;Max_cycle;Signal;HPM_P1;HPM_P2
2022/11/23 00:00:57;;;;;;;;;;;;;;;17.41;48.51;99960.63;102097;1325;62208;-84
2022/11/23 00:03:23;;;;;;;;;;;;;;;17.41;48.41;99958.15;102070;1328;62312;-84
2022/11/23 00:05:48;;;;;;;;;;;;;;;17.41;48.41;99954.05;102063;1326;62178;-84
2022/11/23 00:08:13;;;;;;;;;;;;;;;17.40;48.35;99959.23;102145;1325;62107;-84
2022/11/23 00:10:39;;;;;;;;;;;;;;;17.40;48.50;99962.08;102106;1328;62128;-84
2022/11/23 00:13:04;;;;;;;;;;;;;;;17.40;48.41;99961.38;102137;1328;62133;-84
2022/11/23 00:15:31;;;;;;;;;;;;;;;17.40;48.44;99957.81;102089;1332;62161;-85
2022/11/23 00:17:58;;;;;;;;;;;;;;;17.40;48.38;99947.69;102080;1319;62139;-84
2022/11/23 00:20:24;;;;;;;;;;;;;;;17.40;48.51;99946.45;102079;1326;62146;-84
2022/11/23 00:22:49;;;;;;;;;;;;;;;17.40;48.36;99942.89;102117;1326;62250;-85
2022/11/23 00:25:15;;;;;;;;;;;;;;;17.40;48.40;99940.94;102063;1328;62264;-84
2022/11/23 00:27:40;;;;;;;;;;;;;;;17.40;48.36;99937.20;102153;1328;62287;-84
2022/11/23 00:30:06;;;;;;;;;;;;;;;17.40;48.45;99929.90;102109;1328;62149;-84
2022/11/23 00:32:31;;;;;;;;;;;;;;;17.40;48.36;99925.66;102069;1319;62096;-83
2022/11/23 00:34:58;;;;;;;;;;;;;;;17.40;48.38;99925.30;102022;1333;62135;-84
2022/11/23 00:37:23;;;;;;;;;;;;;;;17.39;48.48;99925.86;102138;1325;62111;-83
2022/11/23 00:39:48;;;;;;;;;;;;;;;17.39;48.33;99918.76;102079;1326;62135;-83
2022/11/23 00:42:14;;;;;;;;;;;;;;;17.40;48.43;99903.25;102134;1332;60728;-84
2022/11/23 00:44:39;;;;;;;;;;;;;;;17.39;48.39;99900.64;102064;1328;62232;-84
2022/11/23 00:47:05;;;;;;;;;;;;;;;17.39;48.39;99897.77;102065;1328;62108;-84
2022/11/23 00:49:30;;;;;;;;;;;;;;;17.39;48.37;99897.63;102084;1328;62291;-84
2022/11/23 00:51:55;;;;;;;;;;;;;;;17.39;48.17;99896.55;102070;1332;62143;-84
2022/11/23 00:54:21;;;;;;;;;;;;;;;17.39;48.36;99895.48;102118;1325;62177;-84
2022/11/23 00:56:46;;;;;;;;;;;;;;;17.38;48.21;99889.48;102089;1320;62067;-84
2022/11/23 00:59:12;;;;;;;;;;;;;;;17.38;48.29;99890.88;102095;1328;62096;-84
2022/11/23 01:01:37;;;;;;;;;;;;;;;17.38;48.32;99885.56;102065;1327;62132;-84
2022/11/23 01:04:03;;;;;;;;;;;;;;;17.38;48.22;99883.27;102109;1325;62144;-84
2022/11/23 01:06:32;;;;;;;;;;;;;;;17.38;48.20;99879.55;102136;1328;62153;-85
2022/11/23 01:08:59;;;;;;;;;;;;;;;17.38;48.19;99879.89;102077;1329;72667;-85
2022/11/23 01:11:25;;;;;;;;;;;;;;;17.38;48.27;99877.75;102063;1328;75606;-84
2022/11/23 01:13:50;;;;;;;;;;;;;;;17.38;48.28;99883.98;102108;1326;62309;-85
2022/11/23 01:16:17;;;;;;;;;;;;;;;17.38;48.19;99877.76;102094;1325;62090;-84
2022/11/23 01:18:42;;;;;;;;;;;;;;;17.38;48.21;99880.08;102119;1326;62285;-84
2022/11/23 01:21:08;;;;;;;;;;;;;;;17.38;48.14;99876.38;102082;1332;62085;-84
2022/11/23 01:23:33;;;;;;;;;;;;;;;17.38;48.37;99872.77;102157;1323;63240;-84
2022/11/23 01:26:08;;;;;;;;;;;;;;;17.37;48.12;99865.70;102128;1325;62164;-84
2022/11/23 01:28:33;;;;;;;;;;;;;;;17.37;48.13;99860.92;102070;1328;62029;-84
2022/11/23 01:31:03;;;;;;;;;;;;;;;17.37;48.20;99865.02;102059;1328;62129;-85
2022/11/23 01:33:29;;;;;;;;;;;;;;;17.37;48.18;99855.42;102064;1328;76453;-85
2022/11/23 01:35:54;;;;;;;;;;;;;;;17.37;48.22;99850.10;102109;1325;62134;-84
2022/11/23 01:38:19;;;;;;;;;;;;;;;17.37;48.31;99842.27;102095;1328;62222;-84
2022/11/23 01:40:46;;;;;;;;;;;;;;;17.37;48.24;99835.87;102096;1331;62589;-84
2022/11/23 01:43:15;;;;;;;;;;;;;;;17.37;48.17;99828.59;102073;1332;62118;-84
2022/11/23 01:45:41;;;;;;;;;;;;;;;17.37;48.15;99820.75;102058;1318;62075;-85
2022/11/23 01:48:11;;;;;;;;;;;;;;;17.37;48.25;99815.94;102107;1326;62245;-84
2022/11/23 01:50:37;;;;;;;;;;;;;;;17.36;48.19;99818.66;102085;1328;73540;-84
2022/11/23 01:53:02;;;;;;;;;;;;;;;17.37;48.20;99822.17;102080;1326;62219;-84
2022/11/23 01:55:28;;;;;;;;;;;;;;;17.36;48.19;99819.20;102094;1326;62083;-84
2022/11/23 01:57:53;;;;;;;;;;;;;;;17.37;48.16;99815.61;102087;1331;62199;-84
2022/11/23 02:00:18;;;;;;;;;;;;;;;17.36;48.06;99807.28;102151;1327;62207;-85
2022/11/23 02:02:53;;;;;;;;;;;;;;;17.36;48.13;99807.98;102066;1325;62249;-83
2022/11/23 02:05:18;;;;;;;;;;;;;;;17.36;48.11;99798.05;102098;1328;76389;-84
2022/11/23 02:07:44;;;;;;;;;;;;;;;17.36;48.16;99795.73;102081;1328;62132;-84
2022/11/23 02:10:10;;;;;;;;;;;;;;;17.36;48.13;99794.45;102102;1328;62173;-84
2022/11/23 02:12:35;;;;;;;;;;;;;;;17.35;48.08;99792.23;102115;1325;60956;-84
2022/11/23 02:15:00;;;;;;;;;;;;;;;17.36;48.07;99794.50;102075;1325;62124;-84
2022/11/23 02:17:26;;;;;;;;;;;;;;;17.36;48.18;99798.59;102102;1326;62133;-84
2022/11/23 02:19:56;;;;;;;;;;;;;;;17.36;48.08;99795.21;102093;1325;62266;-85
2022/11/23 02:22:34;;;;;;;;;;;;;;;17.35;48.14;99795.61;102102;1326;61138;-84
2022/11/23 02:24:59;;;;;;;;;;;;;;;17.35;48.10;99796.67;102127;1325;73640;-84
2022/11/23 02:27:25;;;;;;;;;;;;;;;17.35;48.10;99792.41;101983;1328;62130;-84
2022/11/23 02:29:50;;;;;;;;;;;;;;;17.36;48.11;99792.73;102017;1327;62143;-84
2022/11/23 02:32:21;;;;;;;;;;;;;;;17.35;47.96;99789.05;102000;1328;62205;-84
2022/11/23 02:34:48;;;;;;;;;;;;;;;17.35;48.13;99790.84;101982;1328;72652;-85
2022/11/23 02:37:13;;;;;;;;;;;;;;;17.35;47.96;99786.04;101988;1328;62160;-83
2022/11/23 02:39:43;;;;;;;;;;;;;;;17.35;47.99;99780.70;101981;1327;62120;-84
2022/11/23 02:42:09;;;;;;;;;;;;;;;17.35;48.03;99777.67;101974;1334;62461;-84
2022/11/23 02:44:44;;;;;;;;;;;;;;;17.34;48.01;99775.95;102103;1328;62141;-83
2022/11/23 02:47:09;;;;;;;;;;;;;;;17.35;48.04;99770.77;101998;1326;75356;-85
2022/11/23 02:49:35;;;;;;;;;;;;;;;17.34;48.01;99765.09;101990;1327;62249;-84
2022/11/23 02:52:00;;;;;;;;;;;;;;;17.34;47.97;99770.08;101989;1328;62136;-84
2022/11/23 02:54:26;;;;;;;;;;;;;;;17.35;47.95;99774.14;101966;1328;62273;-84
2022/11/23 02:56:51;;;;;;;;;;;;;;;17.34;48.05;99771.86;102008;1328;62241;-84
2022/11/23 02:59:17;;;;;;;;;;;;;;;17.35;47.91;99773.08;101967;1327;76779;-83
2022/11/23 03:01:42;;;;;;;;;;;;;;;17.35;47.97;99778.75;101985;1329;62234;-85
2022/11/23 03:04:08;;;;;;;;;;;;;;;17.34;48.06;99775.05;101969;1318;62202;-84
2022/11/23 03:06:33;;;;;;;;;;;;;;;17.34;47.99;99778.61;101985;1334;64491;-84
2022/11/23 03:08:59;;;;;;;;;;;;;;;17.34;47.99;99773.31;101986;1330;62216;-83
2022/11/23 03:11:24;;;;;;;;;;;;;;;17.34;47.87;99770.09;102014;1328;75501;-83
2022/11/23 03:13:50;;;;;;;;;;;;;;;17.34;48.07;99759.95;101999;1321;62127;-84
2022/11/23 03:16:15;;;;;;;;;;;;;;;17.34;47.95;99754.09;101966;1334;62132;-83
2022/11/23 03:18:41;;;;;;;;;;;;;;;17.34;47.94;99752.85;101956;1332;62286;-83
2022/11/23 03:21:08;;;;;;;;;;;;;;;17.34;47.88;99752.49;102136;1326;62204;-84
2022/11/23 03:23:33;;;;;;;;;;;;;;;17.34;47.91;99748.95;101976;1328;75472;-85
2022/11/23 03:25:59;;;;;;;;;;;;;;;17.34;47.92;99748.40;102010;1331;62861;-85
2022/11/23 03:28:24;;;;;;;;;;;;;;;17.34;47.84;99750.36;102130;1328;62190;-85
2022/11/23 03:30:50;;;;;;;;;;;;;;;17.34;47.87;99748.77;102140;1329;63278;-85
2022/11/23 03:33:15;;;;;;;;;;;;;;;17.33;47.97;99747.35;102110;1325;62147;-84
2022/11/23 03:35:41;;;;;;;;;;;;;;;17.33;47.96;99742.58;102083;1329;75311;-83
2022/11/23 03:38:06;;;;;;;;;;;;;;;17.33;47.88;99744.39;102124;1328;62118;-84
2022/11/23 03:40:31;;;;;;;;;;;;;;;17.33;47.94;99744.56;102061;1325;62199;-84
2022/11/23 03:42:57;;;;;;;;;;;;;;;17.33;47.89;99748.46;102115;1325;62161;-84
2022/11/23 03:45:22;;;;;;;;;;;;;;;17.33;47.99;99750.80;102111;1331;62092;-84
2022/11/23 03:47:48;;;;;;;;;;;;;;;17.33;48.04;99749.39;102055;1328;62089;-84
2022/11/23 03:50:13;;;;;;;;;;;;;;;17.33;47.95;99745.12;102134;1328;62153;-84
2022/11/23 03:52:38;;;;;;;;;;;;;;;17.33;47.83;99741.90;102073;1326;62079;-85
2022/11/23 03:55:04;;;;;;;;;;;;;;;17.33;47.83;99741.02;102105;1325;62133;-84
2022/11/23 03:57:30;;;;;;;;;;;;;;;17.32;47.91;99744.23;102086;1331;62177;-84
2022/11/23 03:59:55;;;;;;;;;;;;;;;17.33;47.85;99738.71;102070;1328;62144;-84
2022/11/23 04:02:20;;;;;;;;;;;;;;;17.33;47.88;99736.23;102101;1326;62251;-84
2022/11/23 04:04:46;;;;;;;;;;;;;;;17.32;47.93;99733.08;102127;1324;62126;-85
2022/11/23 04:07:11;;;;;;;;;;;;;;;17.32;47.90;99735.35;102115;1325;62182;-84
2022/11/23 04:09:37;;;;;;;;;;;;;;;17.32;47.90;99728.80;102059;1328;73811;-84
2022/11/23 04:12:02;;;;;;;;;;;;;;;17.32;47.89;99725.24;102080;1334;62140;-83
2022/11/23 04:14:27;;;;;;;;;;;;;;;17.32;47.87;99726.30;102047;1329;62208;-83
2022/11/23 04:16:53;;;;;;;;;;;;;;;17.32;47.82;99722.39;102106;1329;62203;-85
2022/11/23 04:19:18;;;;;;;;;;;;;;;17.32;47.90;99716.73;102103;1331;62094;-83
2022/11/23 04:21:44;;;;;;;;;;;;;;;17.32;47.86;99721.16;102095;1328;62103;-83
2022/11/23 04:24:09;;;;;;;;;;;;;;;17.32;47.87;99719.58;102062;1329;62127;-85
2022/11/23 04:26:34;;;;;;;;;;;;;;;17.32;47.82;99716.89;102093;1316;62127;-84
2022/11/23 04:29:00;;;;;;;;;;;;;;;17.32;47.81;99713.35;102135;1331;62149;-84
2022/11/23 04:31:25;;;;;;;;;;;;;;;17.32;47.84;99711.23;102085;1328;62018;-84
2022/11/23 04:33:51;;;;;;;;;;;;;;;17.32;47.94;99702.13;102095;1325;62153;-84
2022/11/23 04:36:16;;;;;;;;;;;;;;;17.32;47.91;99705.89;102125;1324;62117;-84
2022/11/23 04:38:42;;;;;;;;;;;;;;;17.32;47.93;99702.70;102083;1325;62236;-84
2022/11/23 04:41:07;;;;;;;;;;;;;;;17.32;47.86;99701.46;102083;1331;62131;-84
2022/11/23 04:43:32;;;;;;;;;;;;;;;17.31;47.92;99704.13;102162;1332;62153;-84
2022/11/23 04:45:58;;;;;;;;;;;;;;;17.31;47.88;99698.29;102155;1325;62122;-84
2022/11/23 04:48:23;;;;;;;;;;;;;;;17.31;47.93;99697.75;102096;1331;62138;-84
2022/11/23 04:50:49;;;;;;;;;;;;;;;17.31;47.81;99697.56;102084;1329;62262;-85
2022/11/23 04:53:14;;;;;;;;;;;;;;;17.31;47.90;99693.45;102113;1325;62122;-84
2022/11/23 04:55:39;;;;;;;;;;;;;;;17.31;47.85;99693.11;102151;1330;62132;-85
2022/11/23 04:58:05;;;;;;;;;;;;;;;17.31;47.86;99692.77;102082;1331;62112;-84
2022/11/23 05:00:30;;;;;;;;;;;;;;;17.31;47.85;99688.17;102151;1330;62077;-84
2022/11/23 05:03:00;;;;;;;;;;;;;;;17.31;47.89;99681.60;102091;1325;62119;-84
2022/11/23 05:05:25;;;;;;;;;;;;;;;17.30;47.89;99683.41;102095;1325;61849;-84
2022/11/23 05:07:50;;;;;;;;;;;;;;;17.30;47.89;99680.92;102134;1325;62118;-85
2022/11/23 05:10:16;;;;;;;;;;;;;;;17.30;47.86;99678.45;102130;1329;62466;-84
2022/11/23 05:12:41;;;;;;;;;;;;;;;17.30;47.82;99678.12;102099;1325;62231;-86
2022/11/23 05:15:07;;;;;;;;;;;;;;;17.30;47.78;99679.19;102150;1325;63330;-84
2022/11/23 05:17:33;;;;;;;;;;;;;;;17.30;47.78;99682.75;102134;1329;62199;-84
2022/11/23 05:19:58;;;;;;;;;;;;;;;17.30;47.86;99680.79;102137;1326;62128;-84
2022/11/23 05:22:24;;;;;;;;;;;;;;;17.30;47.73;99681.09;102107;1325;62129;-83
2022/11/23 05:24:49;;;;;;;;;;;;;;;17.32;47.80;99679.69;102122;1329;62274;-83
2022/11/23 05:27:14;;;;;;;;;;;;;;;17.34;47.77;99680.45;102082;1329;60002;-84
2022/11/23 05:29:40;;;;;;;;;;;;;;;17.37;47.86;99668.65;101964;1333;61990;-85
2022/11/23 05:32:05;;;;;;;;;;;;;;;17.41;47.82;99672.11;101924;1325;63776;-84
2022/11/23 05:34:33;;;;;;;;;;;;;;;17.43;47.82;99672.50;101938;1329;62237;-85
2022/11/23 05:37:21;;;;;;;;;;;;;;;17.45;47.71;99675.02;102077;1320;63759;-84
2022/11/23 05:39:47;;;;;;;;;;;;;;;17.47;47.71;99673.64;101733;1324;62016;-83
2022/11/23 05:42:13;;;;;;;;;;;;;;;17.49;47.83;99674.92;101630;1332;62271;-86
2022/11/23 05:44:39;;;;;;;;;;;;;;;17.51;47.79;99674.42;101564;1325;60921;-84
2022/11/23 05:47:04;;;;;;;;;;;;;;;17.52;47.61;99679.14;101549;1327;62155;-84
2022/11/23 05:49:56;;;;;;;;;;;;;;;17.53;47.65;99677.45;101490;1338;62174;-83
2022/11/23 05:52:23;;;;;;;;;;;;;;;17.54;47.64;99676.30;100256;1332;813006;-82
2022/11/23 05:54:49;;;;;;;;;;;;;;;17.56;47.61;99676.35;100617;1331;71228;-84
2022/11/23 05:57:16;;;;;;;;;;;;;;;17.56;47.61;99670.63;100726;1323;65069;-84
2022/11/23 05:59:43;;;;;;;;;;;;;;;17.56;47.65;99670.63;100762;1331;60269;-83
2022/11/23 06:02:09;;;;;;;;;;;;;;;17.56;47.84;99670.30;101950;1327;61058;-84
2022/11/23 06:04:35;;;;;;;;;;;;;;;17.55;47.78;99668.60;100260;1330;64902;-84
2022/11/23 06:07:00;;;;;;;;;;;;;;;17.53;47.81;99670.69;100507;1327;62204;-84
2022/11/23 06:09:26;;;;;;;;;;;;;;;17.51;47.93;99673.50;100546;1332;62117;-83
2022/11/23 06:11:52;;;;;;;;;;;;;;;17.49;48.00;99678.30;101830;1335;60254;-83
2022/11/23 06:14:18;;;;;;;;;;;;;;;17.45;48.13;99670.74;101377;1337;60886;-84
2022/11/23 06:16:44;;;;;;;;;;;;;;;17.43;48.26;99670.93;100946;1323;73568;-84
2022/11/23 06:19:09;;;;;;;;;;;;;;;17.40;48.45;99669.89;101067;1324;62242;-83
2022/11/23 06:21:36;;;;;;;;;;;;;;;17.38;48.43;99669.71;101188;1329;62344;-83
2022/11/23 06:24:01;;;;;;;;;;;;;;;17.37;48.73;99662.48;101092;1323;62028;-83
2022/11/23 06:26:27;;;;;;;;;;;;;;;17.35;48.75;99661.20;101062;1324;62658;-83
2022/11/23 06:28:52;;;;;;;;;;;;;;;17.32;48.94;99657.30;101414;1309;62215;-84
2022/11/23 06:31:18;;;;;;;;;;;;;;;17.29;49.01;99660.55;101547;1312;62131;-84
2022/11/23 06:33:43;;;;;;;;;;;;;;;17.26;49.27;99662.55;101635;1317;62135;-83
2022/11/23 06:36:14;;;;;;;;;;;;;;;17.23;49.25;99661.84;101547;1318;62589;-84
2022/11/23 06:38:39;;;;;;;;;;;;;;;17.23;49.31;99656.55;101658;1317;72334;-86
2022/11/23 06:41:05;;;;;;;;;;;;;;;17.22;49.43;99660.15;101653;1317;62105;-83
2022/11/23 06:43:30;;;;;;;;;;;;;;;17.22;49.44;99664.25;101572;1317;62201;-83
2022/11/23 06:45:56;;;;;;;;;;;;;;;17.22;49.43;99662.97;101617;1319;62183;-83
2022/11/23 06:48:22;;;;;;;;;;;;;;;17.24;49.59;99661.09;101572;1312;62196;-83
2022/11/23 06:50:47;;;;;;;;;;;;;;;17.25;49.55;99653.14;101235;1321;71655;-83
2022/11/23 06:53:13;;;;;;;;;;;;;;;17.27;49.59;99653.73;101304;1316;62154;-83
2022/11/23 06:55:38;;;;;;;;;;;;;;;17.29;49.56;99660.02;101491;1315;64412;-85
2022/11/23 06:58:05;;;;;;;;;;;;;;;17.31;49.71;99658.61;101468;1313;62163;-83
2022/11/23 07:00:32;;;;;;;;;;;;;;;17.37;49.87;99659.44;101436;1309;62146;-83
2022/11/23 07:02:59;;;;;;;;;;;;;;;17.42;49.97;99660.50;101408;1318;62167;-82
2022/11/23 07:05:24;;;;;;;;;;;;;;;17.46;49.99;99657.73;101451;1317;62095;-82
2022/11/23 07:07:50;;;;;;;;;;;;;;;17.48;49.98;99653.98;101442;1318;62136;-83
2022/11/23 07:10:16;;;;;;;;;;;;;;;17.51;50.04;99651.27;101479;1312;62316;-83
2022/11/23 07:12:42;;;;;;;;;;;;;;;17.54;50.10;99651.08;101563;1309;62279;-83
2022/11/23 07:15:08;;;;;;;;;;;;;;;17.57;50.01;99655.11;101632;1313;75147;-83
2022/11/23 07:17:37;;;;;;;;;;;;;;;17.59;50.00;99654.44;101660;1320;62226;-84
2022/11/23 07:20:03;;;;;;;;;;;;;;;17.61;50.11;99651.08;101705;1312;62118;-83
2022/11/23 07:22:28;;;;;;;;;;;;;;;17.62;50.03;99646.36;101424;1312;62018;-83
2022/11/23 07:24:53;;;;;;;;;;;;;;;17.65;50.23;99644.55;101436;1319;62201;-82
2022/11/23 07:27:19;;;;;;;;;;;;;;;17.72;50.32;99645.24;101435;1317;62712;-83
2022/11/23 07:29:44;;;;;;;;;;;;;;;17.76;50.30;99644.45;101503;1317;62217;-83
2022/11/23 07:32:10;;;;;;;;;;;;;;;17.76;50.29;99643.14;101444;1312;62015;-83
2022/11/23 07:34:35;;;;;;;;;;;;;;;17.75;50.26;99641.63;101510;1316;62193;-82
2022/11/23 07:37:02;;;;;;;;;;;;;;;17.75;50.20;99645.93;101433;1309;62168;-82
2022/11/23 07:39:27;;;;;;;;;;;;;;;17.74;50.32;99641.17;101476;1317;62052;-82
2022/11/23 07:41:53;;;;;;;;;;;;;;;17.73;50.34;99637.70;101575;1312;62085;-84
2022/11/23 07:44:18;;;;;;;;;;;;;;;17.72;50.34;99625.83;101519;1318;60692;-84
2022/11/23 07:46:44;;;;;;;;;;;;;;;17.73;50.38;99624.20;101515;1317;62132;-84
2022/11/23 07:49:09;;;;;;;;;;;;;;;17.73;50.39;99625.30;101493;1318;62138;-84
2022/11/23 07:51:35;;;;;;;;;;;;;;;17.73;50.39;99617.91;101476;1314;62115;-84
2022/11/23 07:54:00;;;;;;;;;;;;;;;17.76;50.49;99610.83;101359;1312;62141;-82
2022/11/23 07:56:25;;;;;;;;;;;;;;;17.79;50.62;99612.35;101563;1315;62171;-83
2022/11/23 07:58:51;;;;;;;;;;;;;;;17.82;50.63;99609.45;101842;1317;62241;-84
2022/11/23 08:01:17;;;;;;;;;;;;;;;17.86;50.83;99612.72;101639;1310;62107;-83
2022/11/23 08:03:45;;;;;;;;;;;;;;;17.89;51.03;99615.84;102941;1317;60260;-85
2022/11/23 08:06:11;;;;;;;;;;;;;;;17.93;51.04;99620.73;102976;1315;62233;-85
2022/11/23 08:08:37;;;;;;;;;;;;;;;17.95;51.06;99630.08;103008;1317;59762;-84
2022/11/23 08:11:03;;;;;;;;;;;;;;;17.97;51.35;99636.15;101923;1314;63920;-85
2022/11/23 08:13:31;;;;;;;;;;;;;;;17.97;51.25;99641.81;101574;1316;62239;-85
2022/11/23 08:15:56;;;;;;;;;;;;;;;17.97;51.44;99643.66;101454;1317;62105;-84
2022/11/23 08:18:22;;;;;;;;;;;;;;;17.96;51.47;99637.98;101421;1313;62093;-84
2022/11/23 08:20:48;;;;;;;;;;;;;;;17.96;51.51;99635.99;101575;1311;62139;-84
2022/11/23 08:23:13;;;;;;;;;;;;;;;17.96;51.31;99631.19;101545;1317;62087;-83
2022/11/23 08:25:39;;;;;;;;;;;;;;;17.95;51.42;99634.67;101639;1313;62138;-84
2022/11/23 08:28:04;;;;;;;;;;;;;;;17.95;51.39;99634.01;101665;1316;62576;-83
2022/11/23 08:30:30;;;;;;;;;;;;;;;17.94;51.35;99636.89;101645;1315;62199;-84
2022/11/23 08:32:56;;;;;;;;;;;;;;;17.94;51.35;99643.30;101553;1313;62213;-84
2022/11/23 08:35:45;;;;;;;;;;;;;;;17.93;51.28;99643.91;101572;1316;62262;-84
2022/11/23 08:38:10;;;;;;;;;;;;;;;17.92;51.42;99647.88;101268;1318;62123;-84
2022/11/23 08:40:36;;;;;;;;;;;;;;;17.92;51.48;99645.02;101211;1321;62160;-85
2022/11/23 08:43:28;;;;;;;;;;;;;;;17.90;51.49;99645.67;101064;1318;62028;-84
2022/11/23 08:45:56;;;;;;;;;;;;;;;17.90;51.64;99647.64;100811;1324;62048;-84
2022/11/23 08:48:22;;;;;;;;;;;;;;;17.90;51.52;99647.80;100489;1331;62151;-85
2022/11/23 08:50:47;;;;;;;;;;;;;;;17.90;51.67;99639.62;100616;1331;62167;-84
2022/11/23 08:53:13;;;;;;;;;;;;;;;17.91;51.64;99640.67;100680;1331;62225;-85
2022/11/23 08:55:38;;;;;;;;;;;;;;;17.91;51.59;99635.68;100658;1326;62197;-85
2022/11/23 08:58:06;;;;;;;;;;;;;;;17.90;51.75;99642.83;100738;1324;62300;-82
2022/11/23 09:00:31;;;;;;;;;;;;;;;17.90;51.52;99640.38;100833;1327;62146;-85
2022/11/23 09:03:00;;;;;;;;;;;;;;;17.89;51.72;99636.31;100434;1324;72662;-85
2022/11/23 09:05:26;;;;;;;;;;;;;;;17.88;51.54;99631.61;100452;1331;62197;-84
2022/11/23 09:07:52;;;;;;;;;;;;;;;17.90;51.71;99630.06;100629;1330;62146;-84
2022/11/23 09:10:19;;;;;;;;;;;;;;;17.94;51.92;99629.73;100529;1329;62148;-84
2022/11/23 09:12:45;;;;;;;;;;;;;;;17.99;52.08;99629.27;100738;1324;62118;-85
2022/11/23 09:15:11;;;;;;;;;;;;;;;18.01;52.08;99626.01;100743;1323;62343;-83
2022/11/23 09:17:36;;;;;;;;;;;;;;;18.01;51.99;99619.96;100969;1318;62146;-84
2022/11/23 09:20:02;;;;;;;;;;;;;;;18.00;52.17;99620.20;101085;1318;62141;-84
2022/11/23 09:22:27;;;;;;;;;;;;;;;18.01;52.04;99619.11;101111;1317;62418;-84
2022/11/23 09:24:53;;;;;;;;;;;;;;;18.00;52.06;99620.20;101474;1318;62343;-84
2022/11/23 09:27:18;;;;;;;;;;;;;;;18.00;52.07;99606.55;101502;1313;62144;-84
2022/11/23 09:29:43;;;;;;;;;;;;;;;17.99;52.14;99595.94;101537;1310;62126;-83
2022/11/23 09:32:09;;;;;;;;;;;;;;;17.99;52.07;99595.95;101601;1317;62132;-85
2022/11/23 09:34:37;;;;;;;;;;;;;;;17.98;52.02;99594.91;101588;1312;60265;-83
2022/11/23 09:37:02;;;;;;;;;;;;;;;17.98;52.05;99594.21;101532;1316;73709;-83
2022/11/23 09:39:29;;;;;;;;;;;;;;;17.98;52.15;99585.02;101566;1319;64519;-84
2022/11/23 09:42:01;;;;;;;;;;;;;;;17.97;52.20;99573.67;101539;1312;62164;-87
2022/11/23 09:44:27;;;;;;;;;;;;;;;17.96;52.14;99569.24;101622;1313;61816;-85
2022/11/23 09:46:59;;;;;;;;;;;;;;;17.98;52.30;99562.92;101628;1317;62127;-85
2022/11/23 09:49:30;;;;;;;;;;;;;;;18.00;52.42;99555.95;101712;1313;76795;-83
2022/11/23 09:51:55;;;;;;;;;;;;;;;18.02;52.40;99554.21;101567;1315;62048;-83
2022/11/23 09:54:21;;;;;;;;;;;;;;;18.02;52.40;99561.83;101594;1315;62823;-84
2022/11/23 09:56:49;;;;;;;;;;;;;;;18.03;52.48;99562.34;101639;1315;62062;-84
2022/11/23 09:59:35;;;;;;;;;;;;;;;18.03;52.43;99569.45;101689;1325;76578;-84
2022/11/23 10:02:01;;;;;;;;;;;;;;;18.06;52.82;99571.88;101354;1316;61984;-86
2022/11/23 10:04:29;;;;;;;;;;;;;;;18.09;52.85;99572.92;101540;1315;62083;-84
2022/11/23 10:06:58;;;;;;;;;;;;;;;18.00;52.63;99571.08;101449;1314;71953;-83
2022/11/23 10:09:27;;;;;;;;;;;;;;;17.89;52.69;99567.45;101525;1309;76404;-85
2022/11/23 10:11:56;;;;;;;;;;;;;;;17.86;52.92;99564.13;101477;1316;62017;-85
2022/11/23 10:14:32;;;;;;;;;;;;;;;17.81;52.87;99560.48;101667;1313;62017;-85
2022/11/23 10:17:01;;;;;;;;;;;;;;;17.75;52.87;99549.68;101611;1309;72384;-88
2022/11/23 10:19:42;;;;;;;;;;;;;;;17.68;52.77;99539.31;101595;1316;75264;-85
2022/11/23 10:22:30;;;;;;;;;;;;;;;17.62;52.82;99541.41;102151;1317;61943;-85
2022/11/23 10:24:55;;;;;;;;;;;;;;;17.57;52.95;99534.68;102018;1317;62083;-84
2022/11/23 10:27:21;;;;;;;;;;;;;;;17.55;52.94;99533.23;101927;1322;62136;-83
2022/11/23 10:29:49;;;;;;;;;;;;;;;17.57;53.04;99530.23;101993;1316;75324;-83
2022/11/23 10:32:25;;;;;;;;;;;;;;;17.59;53.01;99530.05;101889;1317;60610;-84
2022/11/23 10:35:11;;;;;;;;;;;;;;;17.62;52.89;99534.98;101868;1315;60572;-82
2022/11/23 10:37:37;;;;;;;;;;;;;;;17.63;53.03;99534.40;102132;1317;72565;-84
2022/11/23 10:40:02;;;;;;;;;;;;;;;17.64;53.03;99527.20;101968;1316;61350;-83
2022/11/23 10:42:34;;;;;;;;;;;;;;;17.66;53.07;99521.18;101949;1319;61095;-82
2022/11/23 10:45:00;;;;;;;;;;;;;;;17.68;53.03;99514.05;102923;1324;60598;-83
2022/11/23 10:47:57;;;;;;;;;;;;;;;17.70;53.19;99511.95;102391;1319;62270;-83
2022/11/23 10:50:24;;;;;;;;;;;;;;;17.71;53.15;99514.89;101966;1317;75770;-83
2022/11/23 10:52:54;;;;;;;;;;;;;;;17.72;53.19;99516.56;101985;1319;61934;-83
2022/11/23 10:55:21;;;;;;;;;;;;;;;17.74;53.22;99515.89;101791;1317;62122;-84
2022/11/23 10:57:46;;;;;;;;;;;;;;;17.73;53.11;99510.48;101945;1326;72620;-82
2022/11/23 11:00:12;;;;;;;;;;;;;;;17.72;53.19;99515.52;101836;1315;62187;-84
2022/11/23 11:02:58;;;;;;;;;;;;;;;17.72;53.27;99520.04;102107;1309;62231;-84
2022/11/23 11:05:27;;;;;;;;;;;;;;;17.61;53.13;99521.38;101954;1309;62434;-85
2022/11/23 11:08:17;;;;;;;;;;;;;;;17.49;53.29;99521.80;101606;1321;70237;-84
2022/11/23 11:10:44;;;;;;;;;;;;;;;17.40;53.21;99515.98;101732;1323;75173;-85
2022/11/23 11:13:26;;;;;;;;;;;;;;;17.40;53.44;99514.77;101742;1325;62282;-84
2022/11/23 11:15:55;;;;;;;;;;;;;;;17.41;53.47;99517.55;101633;1325;60697;-85
2022/11/23 11:18:23;;;;;;;;;;;;;;;17.43;53.54;99516.69;101616;1326;71817;-84
2022/11/23 11:20:54;;;;;;;;;;;;;;;17.44;53.57;99518.40;101602;1325;75016;-84
2022/11/23 11:23:20;;;;;;;;;;;;;;;17.43;53.67;99517.73;101674;1318;61938;-84
2022/11/23 11:25:45;;;;;;;;;;;;;;;17.44;53.51;99515.70;101755;1336;60665;-84
2022/11/23 11:28:18;;;;;;;;;;;;;;;17.47;53.60;99514.44;101787;1323;62127;-84
2022/11/23 11:30:54;;;;;;;;;;;;;;;17.51;53.62;99511.33;101709;1323;74334;-85
2022/11/23 11:33:29;;;;;;;;;;;;;;;17.55;53.73;99508.69;101811;1323;61988;-84
2022/11/23 11:35:54;;;;;;;;;;;;;;;17.60;53.83;99509.71;101734;1323;63029;-84
2022/11/23 11:38:23;;;;;;;;;;;;;;;17.66;53.92;99511.39;101742;1319;62090;-84
2022/11/23 11:40:49;;;;;;;;;;;;;;;17.72;54.13;99512.75;101709;1316;75110;-83
2022/11/23 11:43:19;;;;;;;;;;;;;;;17.77;54.36;99511.45;101714;1323;62139;-82
2022/11/23 11:45:49;;;;;;;;;;;;;;;17.85;54.44;99521.86;101719;1323;62102;-83
2022/11/23 11:48:16;;;;;;;;;;;;;;;17.96;54.59;99530.13;101942;1326;73655;-83
2022/11/23 11:51:01;;;;;;;;;;;;;;;18.04;54.41;99531.95;101974;1312;75809;-87
2022/11/23 11:53:28;;;;;;;;;;;;;;;18.08;54.30;99532.36;102113;1309;62032;-84
2022/11/23 11:56:17;;;;;;;;;;;;;;;18.07;54.39;99535.46;101971;1309;62201;-85
2022/11/23 11:58:48;;;;;;;;;;;;;;;18.09;54.25;99531.77;101772;1320;72820;-84
2022/11/23 12:01:32;;;;;;;;;;;;;;;18.09;54.09;99528.20;101792;1326;76716;-85
2022/11/23 12:04:04;;;;;;;;;;;;;;;18.01;53.97;99531.29;101468;1323;62035;-85
2022/11/23 12:06:38;;;;;;;;;;;;;;;17.84;53.99;99529.96;101827;1333;60749;-84
2022/11/23 12:09:08;;;;;;;;;;;;;;;17.73;53.96;99532.41;101663;1333;73862;-84
2022/11/23 12:11:35;;;;;;;;;;;;;;;17.64;54.04;99527.89;102471;1338;76409;-85
2022/11/23 12:14:01;;;;;;;;;;;;;;;17.65;54.06;99531.41;102603;1319;60082;-84
2022/11/23 12:16:26;;;;;;;;;;;;;;;17.66;54.28;99530.82;102469;1335;62213;-85
2022/11/23 12:19:07;;;;;;;;;;;;;;;17.66;54.20;99533.44;101740;1337;62120;-84
2022/11/23 12:21:38;;;;;;;;;;;;;;;17.64;54.26;99539.84;101651;1331;75259;-84
2022/11/23 12:24:06;;;;;;;;;;;;;;;17.64;54.18;99548.72;102697;1339;60078;-83
2022/11/23 12:26:37;;;;;;;;;;;;;;;17.64;54.27;99551.05;102306;1323;60216;-85
2022/11/23 12:29:14;;;;;;;;;;;;;;;17.66;54.31;99551.22;101717;1335;73592;-84
2022/11/23 12:32:10;;;;;;;;;;;;;;;17.67;54.44;99550.42;101651;1326;75366;-85
2022/11/23 12:34:38;;;;;;;;;;;;;;;17.67;54.38;99538.52;101345;1328;61266;-85
2022/11/23 12:37:25;;;;;;;;;;;;;;;17.66;54.22;99532.23;101610;1318;62143;-83